CheckWX is a tool to help pilots better visualize weather data.  It is not intended as a substitute for an official pre-flight weather briefing.

07:10:24 UTC

WBKL TAF
Labuan Airport
Labuan, Malaysia
TAF WBKL 230500Z 2306/2406 03006KT 9999 FEW015

Sep-23@
06:00 UTC

Sep-23 @ 06:00 UTC

Sep-24@
06:00 UTC

Sep-24 @ 06:00 UTC

TAF WBKL 230500Z 2306/2406 03006KT 9999 FEW015
Wind
  • 030° at 6 KTS
Cloud Levels
  • Few at 1,500' AGL